createdAt,value
2019-06-11T00:00:15.162Z,90.00
2019-06-11T00:01:08.245Z,90.00
2019-06-11T00:02:23.707Z,90.00
2019-06-11T00:03:06.422Z,247.50
2019-06-11T00:04:06.419Z,180.00
2019-06-11T00:05:06.421Z,315.00
2019-06-11T00:06:06.355Z,225.00
2019-06-11T00:07:06.424Z,315.00
2019-06-11T00:08:06.413Z,135.00
2019-06-11T00:09:06.416Z,22.50
2019-06-11T00:10:07.726Z,22.50
2019-06-11T00:11:08.990Z,22.50
2019-06-11T00:12:07.086Z,22.50
2019-06-11T00:13:06.343Z,22.50
2019-06-11T00:14:06.428Z,22.50
2019-06-11T00:15:06.349Z,22.50
2019-06-11T00:16:06.660Z,22.50
2019-06-11T00:17:06.367Z,22.50
2019-06-11T00:18:06.426Z,22.50
2019-06-11T00:19:06.372Z,0.00
2019-06-11T00:20:06.774Z,0.00
2019-06-11T00:21:06.937Z,67.50
2019-06-11T00:22:06.989Z,67.50
2019-06-11T00:23:06.438Z,45.00
2019-06-11T00:24:06.705Z,0.00
2019-06-11T00:25:06.953Z,45.00
2019-06-11T00:26:06.949Z,67.50
2019-06-11T00:27:07.999Z,90.00
2019-06-11T00:28:06.781Z,90.00
2019-06-11T00:29:08.110Z,90.00
2019-06-11T00:30:15.871Z,112.50
2019-06-11T00:31:08.505Z,112.50
2019-06-11T00:32:15.723Z,135.00
2019-06-11T00:33:07.099Z,135.00
2019-06-11T00:34:07.693Z,112.50
2019-06-11T00:35:07.622Z,112.50
2019-06-11T00:36:07.625Z,135.00
2019-06-11T00:37:07.303Z,180.00
2019-06-11T00:38:08.056Z,157.50
2019-06-11T00:39:07.565Z,135.00
2019-06-11T00:40:08.069Z,180.00
2019-06-11T00:41:08.346Z,135.00
2019-06-11T00:42:07.613Z,157.50
2019-06-11T00:43:07.919Z,180.00
2019-06-11T00:44:08.595Z,202.50
2019-06-11T00:45:08.449Z,180.00
2019-06-11T00:46:08.510Z,157.50
2019-06-11T00:47:08.642Z,67.50
2019-06-11T00:48:08.396Z,202.50
2019-06-11T00:49:08.433Z,22.50
2019-06-11T00:50:07.816Z,22.50
2019-06-11T00:51:08.916Z,315.00
2019-06-11T00:52:07.840Z,157.50
2019-06-11T00:53:06.998Z,22.50
2019-06-11T00:54:07.612Z,90.00
2019-06-11T00:55:07.726Z,45.00
2019-06-11T00:56:08.165Z,45.00
2019-06-11T00:57:07.754Z,45.00
2019-06-11T00:58:08.364Z,45.00
2019-06-11T00:59:07.678Z,45.00
2019-06-11T01:00:16.672Z,112.50
2019-06-11T01:01:07.606Z,157.50
2019-06-11T01:02:10.246Z,135.00
2019-06-11T01:03:07.670Z,135.00
2019-06-11T01:04:07.867Z,135.00
2019-06-11T01:05:08.835Z,135.00
2019-06-11T01:06:08.007Z,135.00
2019-06-11T01:07:07.859Z,135.00
2019-06-11T01:08:08.012Z,337.50
2019-06-11T01:09:08.510Z,337.50
2019-06-11T01:10:07.294Z,315.00
2019-06-11T01:11:09.178Z,247.50
2019-06-11T01:12:09.789Z,180.00
2019-06-11T01:13:07.588Z,180.00
2019-06-11T01:14:09.090Z,180.00
2019-06-11T01:15:09.265Z,202.50
2019-06-11T01:16:09.801Z,22.50
2019-06-11T01:17:08.004Z,0.00
2019-06-11T01:18:08.389Z,337.50
2019-06-11T01:19:08.219Z,0.00
2019-06-11T01:20:08.128Z,337.50
2019-06-11T01:21:09.696Z,157.50
2019-06-11T01:22:07.955Z,337.50
2019-06-11T01:23:07.346Z,67.50
2019-06-11T01:24:07.920Z,67.50
2019-06-11T01:25:08.336Z,67.50
2019-06-11T01:26:08.559Z,67.50
2019-06-11T01:27:07.196Z,202.50
2019-06-11T01:28:08.477Z,225.00
2019-06-11T01:29:07.220Z,225.00
2019-06-11T01:30:07.947Z,202.50
2019-06-11T01:31:08.841Z,157.50
2019-06-11T01:32:07.897Z,157.50
2019-06-11T01:33:11.483Z,112.50
2019-06-11T01:34:08.892Z,90.00
2019-06-11T01:35:07.936Z,90.00
2019-06-11T01:36:09.657Z,90.00
2019-06-11T01:37:09.015Z,90.00
2019-06-11T01:38:06.902Z,67.50
2019-06-11T01:39:07.812Z,90.00
2019-06-11T01:40:09.483Z,67.50
2019-06-11T01:41:06.932Z,90.00
2019-06-11T01:42:06.801Z,67.50
2019-06-11T01:43:07.712Z,67.50
2019-06-11T01:44:07.849Z,45.00
2019-06-11T01:45:07.608Z,180.00
2019-06-11T01:46:06.831Z,180.00
2019-06-11T01:47:07.663Z,45.00
2019-06-11T01:48:07.552Z,67.50
2019-06-11T01:49:07.746Z,67.50
2019-06-11T01:50:08.159Z,135.00
2019-06-11T01:51:07.570Z,202.50
2019-06-11T01:52:06.862Z,337.50
2019-06-11T01:53:07.577Z,337.50
2019-06-11T01:54:07.123Z,247.50
2019-06-11T01:55:06.390Z,315.00
2019-06-11T01:56:07.754Z,292.50
2019-06-11T01:57:06.485Z,135.00
2019-06-11T01:58:06.512Z,67.50
2019-06-11T01:59:07.422Z,67.50
2019-06-11T02:00:17.708Z,67.50
2019-06-11T02:01:09.028Z,67.50
2019-06-11T02:02:07.631Z,22.50
2019-06-11T02:03:27.384Z,22.50
2019-06-11T02:04:08.063Z,22.50
2019-06-11T02:05:07.309Z,22.50
2019-06-11T02:06:07.159Z,22.50
2019-06-11T02:07:07.800Z,22.50
2019-06-11T02:08:07.721Z,22.50
2019-06-11T02:09:07.430Z,67.50
2019-06-11T02:10:07.659Z,67.50
2019-06-11T02:11:06.413Z,90.00
2019-06-11T02:12:06.522Z,90.00
2019-06-11T02:13:07.843Z,90.00
2019-06-11T02:14:06.511Z,112.50
2019-06-11T02:15:07.810Z,112.50
2019-06-11T02:16:08.425Z,112.50
2019-06-11T02:17:06.857Z,90.00
2019-06-11T02:18:06.369Z,135.00
2019-06-11T02:19:06.508Z,112.50
2019-06-11T02:20:06.457Z,112.50
2019-06-11T02:21:06.617Z,112.50
2019-06-11T02:22:06.592Z,112.50
2019-06-11T02:23:06.663Z,112.50
2019-06-11T02:24:06.764Z,112.50
2019-06-11T02:25:06.939Z,112.50
2019-06-11T02:26:07.200Z,90.00
2019-06-11T02:27:07.003Z,90.00
2019-06-11T02:28:06.961Z,90.00
2019-06-11T02:29:07.166Z,67.50
2019-06-11T02:30:20.235Z,67.50
2019-06-11T02:31:11.345Z,67.50
2019-06-11T02:32:08.843Z,67.50
2019-06-11T02:33:08.335Z,45.00
2019-06-11T02:34:49.417Z,45.00
2019-06-11T02:35:21.095Z,45.00
2019-06-11T02:36:09.940Z,90.00
2019-06-11T02:37:07.027Z,112.50
2019-06-11T02:39:06.883Z,112.50
2019-06-11T02:40:07.059Z,112.50
2019-06-11T02:41:07.244Z,135.00
2019-06-11T02:42:06.891Z,202.50
2019-06-11T02:43:06.929Z,225.00
2019-06-11T02:44:07.527Z,247.50
2019-06-11T02:45:07.603Z,247.50
2019-06-11T02:46:07.680Z,270.00
2019-06-11T02:47:07.770Z,292.50
2019-06-11T02:48:07.873Z,202.50
2019-06-11T02:49:07.526Z,270.00
2019-06-11T02:50:08.328Z,157.50
2019-06-11T02:51:08.181Z,180.00
2019-06-11T02:52:08.128Z,180.00
2019-06-11T02:53:08.694Z,180.00
2019-06-11T02:54:08.351Z,180.00
2019-06-11T02:55:08.322Z,135.00
2019-06-11T02:56:08.264Z,90.00
2019-06-11T02:57:08.680Z,112.50
2019-06-11T02:58:06.479Z,90.00
2019-06-11T02:59:06.484Z,135.00
2019-06-11T03:00:20.996Z,180.00
2019-06-11T03:01:06.481Z,90.00
2019-06-11T03:02:06.480Z,90.00
2019-06-11T03:03:06.547Z,112.50
2019-06-11T03:04:23.843Z,67.50
2019-06-11T03:05:12.935Z,90.00
2019-06-11T03:06:06.482Z,90.00
2019-06-11T03:07:06.479Z,112.50
2019-06-11T03:08:06.488Z,112.50
2019-06-11T03:09:06.561Z,90.00
2019-06-11T03:10:06.495Z,90.00
2019-06-11T03:11:06.655Z,90.00
2019-06-11T03:12:06.561Z,90.00
2019-06-11T03:13:06.574Z,90.00
2019-06-11T03:14:06.494Z,135.00
2019-06-11T03:15:06.565Z,180.00
2019-06-11T03:16:10.448Z,90.00
2019-06-11T03:17:06.633Z,157.50
2019-06-11T03:18:06.570Z,135.00
2019-06-11T03:19:06.575Z,202.50
2019-06-11T03:20:06.592Z,157.50
2019-06-11T03:21:06.587Z,157.50
2019-06-11T03:22:06.578Z,180.00
2019-06-11T03:23:06.581Z,180.00
2019-06-11T03:24:06.520Z,157.50
2019-06-11T03:25:06.581Z,157.50
2019-06-11T03:26:06.577Z,270.00
2019-06-11T03:27:06.597Z,315.00
2019-06-11T03:28:06.594Z,270.00
2019-06-11T03:29:06.543Z,67.50
2019-06-11T03:30:27.440Z,225.00
2019-06-11T03:31:35.691Z,292.50
2019-06-11T03:36:22.387Z,315.00
2019-06-11T03:36:39.057Z,67.50
2019-06-11T03:37:56.433Z,247.50
2019-06-11T03:38:31.996Z,292.50
2019-06-11T03:39:18.374Z,270.00
2019-06-11T03:40:07.065Z,292.50
2019-06-11T03:41:06.526Z,247.50
2019-06-11T03:42:06.516Z,90.00
2019-06-11T03:43:06.579Z,135.00
2019-06-11T03:44:06.514Z,292.50
2019-06-11T03:45:06.584Z,315.00
2019-06-11T03:46:06.504Z,270.00
2019-06-11T03:47:06.510Z,292.50
2019-06-11T03:48:06.533Z,292.50
2019-06-11T03:49:06.555Z,315.00
2019-06-11T03:50:06.501Z,292.50
2019-06-11T03:51:06.532Z,292.50
2019-06-11T03:52:06.650Z,315.00
2019-06-11T03:53:06.551Z,315.00
2019-06-11T03:54:06.609Z,292.50
2019-06-11T03:55:06.610Z,292.50
2019-06-11T03:56:06.536Z,292.50
2019-06-11T03:57:06.551Z,247.50
2019-06-11T03:58:06.585Z,157.50
2019-06-11T03:59:06.588Z,157.50
2019-06-11T04:00:18.729Z,180.00
2019-06-11T04:01:06.518Z,157.50
2019-06-11T04:02:06.505Z,135.00
2019-06-11T04:03:06.498Z,135.00
2019-06-11T04:04:06.478Z,112.50
2019-06-11T04:05:06.591Z,112.50
2019-06-11T04:06:06.579Z,112.50
2019-06-11T04:07:17.146Z,90.00
2019-06-11T04:08:06.542Z,90.00
2019-06-11T04:09:06.601Z,67.50
2019-06-11T04:10:06.547Z,67.50
2019-06-11T04:11:06.530Z,67.50
2019-06-11T04:12:06.606Z,22.50
2019-06-11T04:13:06.537Z,22.50
2019-06-11T04:14:06.533Z,67.50
2019-06-11T04:15:06.534Z,67.50
2019-06-11T04:16:06.615Z,90.00
2019-06-11T04:17:17.675Z,180.00
2019-06-11T04:18:06.610Z,90.00
2019-06-11T04:19:06.627Z,90.00
2019-06-11T04:20:06.632Z,90.00
2019-06-11T04:21:06.638Z,90.00
2019-06-11T04:22:06.655Z,45.00
2019-06-11T04:23:08.663Z,45.00
2019-06-11T04:25:06.577Z,22.50
2019-06-11T04:26:06.566Z,22.50
2019-06-11T04:27:06.635Z,22.50
2019-06-11T04:28:06.623Z,67.50
2019-06-11T04:29:06.611Z,180.00
2019-06-11T04:30:13.459Z,292.50
2019-06-11T04:31:06.626Z,337.50
2019-06-11T04:32:06.574Z,292.50
2019-06-11T04:33:06.550Z,135.00
2019-06-11T04:34:06.550Z,315.00
2019-06-11T04:35:06.558Z,202.50
2019-06-11T04:36:06.616Z,225.00
2019-06-11T04:37:25.467Z,45.00
2019-06-11T04:38:12.955Z,202.50
2019-06-11T04:39:06.593Z,202.50
2019-06-11T04:40:06.649Z,90.00
2019-06-11T04:41:06.637Z,112.50
2019-06-11T04:42:06.647Z,157.50
2019-06-11T04:43:06.661Z,112.50
2019-06-11T04:44:06.640Z,90.00
2019-06-11T04:45:06.643Z,67.50
2019-06-11T04:46:06.640Z,112.50
2019-06-11T04:47:06.642Z,112.50
2019-06-11T04:48:06.570Z,112.50
2019-06-11T04:49:06.603Z,90.00
2019-06-11T04:50:06.606Z,90.00
2019-06-11T04:51:06.650Z,90.00
2019-06-11T04:52:06.609Z,90.00
2019-06-11T04:53:06.665Z,90.00
2019-06-11T04:54:06.653Z,90.00
2019-06-11T04:55:08.379Z,90.00
2019-06-11T04:56:06.589Z,112.50
2019-06-11T04:57:06.655Z,112.50
2019-06-11T04:58:06.672Z,90.00
2019-06-11T04:59:06.577Z,90.00
2019-06-11T05:00:15.982Z,90.00
2019-06-11T05:04:22.446Z,135.00
2019-06-11T05:05:10.812Z,45.00
2019-06-11T05:06:06.661Z,202.50
2019-06-11T05:07:25.486Z,180.00
2019-06-11T05:08:10.533Z,45.00
2019-06-11T05:09:06.581Z,225.00
2019-06-11T05:10:06.602Z,180.00
2019-06-11T05:11:06.660Z,202.50
2019-06-11T05:12:06.671Z,67.50
2019-06-11T05:13:06.720Z,225.00
2019-06-11T05:14:17.647Z,180.00
2019-06-11T05:15:06.585Z,315.00
2019-06-11T05:16:06.668Z,135.00
2019-06-11T05:17:06.603Z,90.00
2019-06-11T05:18:09.581Z,270.00
2019-06-11T05:19:06.660Z,67.50
2019-06-11T05:20:06.717Z,247.50
2019-06-11T05:21:06.673Z,315.00
2019-06-11T05:22:06.605Z,0.00
2019-06-11T05:23:06.674Z,180.00
2019-06-11T05:24:06.601Z,22.50
2019-06-11T05:25:06.662Z,270.00
2019-06-11T05:26:13.495Z,22.50
2019-06-11T05:27:06.553Z,45.00
2019-06-11T05:28:06.666Z,337.50
2019-06-11T05:29:06.595Z,180.00
2019-06-11T05:30:14.162Z,202.50
2019-06-11T05:31:06.597Z,180.00
2019-06-11T05:32:06.725Z,112.50
2019-06-11T05:33:06.700Z,112.50
2019-06-11T05:34:06.650Z,112.50
2019-06-11T05:35:06.566Z,90.00
2019-06-11T05:36:06.711Z,90.00
2019-06-11T05:37:06.607Z,90.00
2019-06-11T05:38:16.040Z,90.00
2019-06-11T05:39:06.567Z,90.00
2019-06-11T05:40:06.678Z,67.50
2019-06-11T05:41:06.627Z,90.00
2019-06-11T05:42:06.577Z,90.00
2019-06-11T05:43:06.690Z,90.00
2019-06-11T05:44:06.687Z,90.00
2019-06-11T05:45:07.275Z,90.00
2019-06-11T05:46:06.629Z,90.00
2019-06-11T05:47:06.677Z,90.00
2019-06-11T05:48:06.615Z,67.50
2019-06-11T05:49:06.674Z,67.50
2019-06-11T05:50:06.605Z,202.50
2019-06-11T05:51:06.612Z,0.00
2019-06-11T05:52:06.674Z,315.00
2019-06-11T05:53:06.605Z,315.00
2019-06-11T05:54:06.673Z,315.00
2019-06-11T05:55:06.609Z,202.50
2019-06-11T05:56:06.677Z,112.50
2019-06-11T05:57:06.617Z,22.50
2019-06-11T05:58:06.611Z,22.50
2019-06-11T05:59:06.589Z,22.50
2019-06-11T06:00:06.722Z,67.50
2019-06-11T06:01:13.153Z,67.50
2019-06-11T06:02:07.051Z,45.00
2019-06-11T06:03:06.689Z,270.00
2019-06-11T06:04:06.697Z,337.50
2019-06-11T06:05:06.620Z,157.50
2019-06-11T06:06:06.695Z,225.00
2019-06-11T06:07:06.639Z,270.00
2019-06-11T06:09:06.846Z,315.00
2019-06-11T06:10:06.614Z,180.00
2019-06-11T06:11:06.574Z,270.00
2019-06-11T06:12:06.625Z,0.00
2019-06-11T06:13:06.687Z,0.00
2019-06-11T06:14:06.629Z,292.50
2019-06-11T06:15:06.692Z,315.00
2019-06-11T06:16:06.641Z,337.50
2019-06-11T06:17:06.694Z,157.50
2019-06-11T06:18:06.625Z,292.50
2019-06-11T06:19:06.707Z,247.50
2019-06-11T06:20:06.755Z,202.50
2019-06-11T06:21:06.638Z,157.50
2019-06-11T06:22:06.634Z,247.50
2019-06-11T06:23:06.710Z,247.50
2019-06-11T06:24:20.497Z,292.50
2019-06-11T06:25:06.666Z,270.00
2019-06-11T06:26:06.722Z,270.00
2019-06-11T06:27:06.607Z,292.50
2019-06-11T06:28:06.680Z,315.00
2019-06-11T06:29:06.633Z,247.50
2019-06-11T06:30:11.928Z,292.50
2019-06-11T06:31:06.629Z,202.50
2019-06-11T06:32:06.701Z,247.50
2019-06-11T06:33:06.753Z,270.00
2019-06-11T06:34:06.629Z,270.00
2019-06-11T06:35:06.704Z,112.50
2019-06-11T06:36:06.635Z,270.00
2019-06-11T06:37:06.705Z,247.50
2019-06-11T06:38:06.629Z,225.00
2019-06-11T06:39:06.717Z,225.00
2019-06-11T06:40:06.650Z,157.50
2019-06-11T06:41:06.722Z,270.00
2019-06-11T06:42:06.655Z,292.50
2019-06-11T06:43:06.655Z,247.50
2019-06-11T06:44:06.707Z,247.50
2019-06-11T06:45:06.718Z,247.50
2019-06-11T06:46:06.723Z,270.00
2019-06-11T06:47:06.653Z,270.00
2019-06-11T06:48:06.660Z,270.00
2019-06-11T06:49:06.716Z,270.00
2019-06-11T06:50:06.665Z,292.50
2019-06-11T06:51:06.641Z,270.00
2019-06-11T06:52:06.727Z,247.50
2019-06-11T06:53:06.729Z,180.00
2019-06-11T06:54:06.715Z,225.00
2019-06-11T06:55:06.722Z,315.00
2019-06-11T06:56:06.719Z,247.50
2019-06-11T06:57:06.645Z,292.50
2019-06-11T06:58:06.602Z,292.50
2019-06-11T06:59:06.739Z,292.50
2019-06-11T07:00:10.240Z,270.00
2019-06-11T07:01:06.664Z,225.00
2019-06-11T07:02:06.732Z,157.50
2019-06-11T07:03:06.665Z,202.50
2019-06-11T07:04:06.664Z,180.00
2019-06-11T07:05:06.686Z,270.00
2019-06-11T07:06:06.700Z,135.00
2019-06-11T07:07:06.747Z,180.00
2019-06-11T07:08:06.666Z,202.50
2019-06-11T07:09:09.250Z,247.50
2019-06-11T07:10:06.672Z,292.50
2019-06-11T07:11:06.678Z,292.50
2019-06-11T07:12:06.679Z,270.00
2019-06-11T07:13:06.687Z,292.50
2019-06-11T07:14:06.743Z,270.00
2019-06-11T07:15:06.674Z,270.00
2019-06-11T07:16:06.777Z,292.50
2019-06-11T07:17:07.642Z,292.50
2019-06-11T07:18:06.755Z,315.00
2019-06-11T07:19:06.668Z,315.00
2019-06-11T07:20:06.731Z,292.50
2019-06-11T07:21:06.667Z,292.50
2019-06-11T07:22:06.683Z,337.50
2019-06-11T07:23:06.665Z,315.00
2019-06-11T07:24:08.447Z,225.00
2019-06-11T07:25:06.748Z,292.50
2019-06-11T07:26:06.650Z,292.50
2019-06-11T07:27:06.737Z,292.50
2019-06-11T07:28:06.746Z,292.50
2019-06-11T07:29:06.611Z,90.00
2019-06-11T07:30:06.807Z,270.00
2019-06-11T07:31:06.655Z,270.00
2019-06-11T07:32:06.744Z,292.50
2019-06-11T07:33:07.947Z,292.50
2019-06-11T07:34:06.635Z,292.50
2019-06-11T07:35:06.674Z,292.50
2019-06-11T07:36:07.830Z,247.50
2019-06-11T07:37:06.617Z,292.50
2019-06-11T07:38:06.659Z,292.50
2019-06-11T07:39:19.584Z,270.00
2019-06-11T07:40:06.774Z,225.00
2019-06-11T07:41:06.697Z,270.00
2019-06-11T07:42:06.692Z,270.00
2019-06-11T07:43:06.765Z,292.50
2019-06-11T07:44:06.769Z,270.00
2019-06-11T07:45:06.703Z,247.50
2019-06-11T07:46:28.633Z,270.00
2019-06-11T07:47:07.045Z,315.00
2019-06-11T07:48:06.777Z,315.00
2019-06-11T07:49:06.766Z,292.50
2019-06-11T07:50:06.641Z,292.50
2019-06-11T07:51:06.761Z,270.00
2019-06-11T07:52:06.757Z,292.50
2019-06-11T07:53:06.661Z,270.00
2019-06-11T07:54:06.678Z,270.00
2019-06-11T07:55:06.688Z,247.50
2019-06-11T07:56:06.705Z,270.00
2019-06-11T07:57:10.942Z,292.50
2019-06-11T07:58:06.766Z,292.50
2019-06-11T07:59:06.769Z,270.00
2019-06-11T08:00:06.677Z,292.50
2019-06-11T08:01:06.792Z,292.50
2019-06-11T08:02:06.708Z,292.50
2019-06-11T08:03:06.771Z,292.50
2019-06-11T08:04:06.670Z,292.50
2019-06-11T08:05:06.831Z,292.50
2019-06-11T08:06:06.684Z,270.00
2019-06-11T08:07:06.773Z,292.50
2019-06-11T08:08:06.761Z,292.50
2019-06-11T08:09:06.701Z,270.00
2019-06-11T08:10:27.293Z,202.50
2019-06-11T08:11:06.945Z,157.50
2019-06-11T08:12:06.787Z,202.50
2019-06-11T08:13:07.017Z,225.00
2019-06-11T08:14:14.666Z,202.50
2019-06-11T08:15:06.781Z,247.50
2019-06-11T08:16:11.878Z,225.00
2019-06-11T08:17:06.720Z,225.00
2019-06-11T08:18:06.705Z,270.00
2019-06-11T08:20:32.550Z,270.00
2019-06-11T08:21:29.957Z,270.00
2019-06-11T08:22:23.006Z,225.00
2019-06-11T08:23:10.493Z,247.50
2019-06-11T08:24:01.805Z,247.50
2019-06-11T08:24:19.871Z,270.00
2019-06-11T08:25:12.516Z,270.00
2019-06-11T08:27:27.229Z,247.50
2019-06-11T08:27:29.718Z,247.50
2019-06-11T08:28:12.733Z,225.00
2019-06-11T08:29:06.739Z,247.50
2019-06-11T08:30:06.798Z,202.50
2019-06-11T08:31:06.739Z,247.50
2019-06-11T08:32:06.738Z,157.50
2019-06-11T08:33:06.732Z,157.50
2019-06-11T08:34:07.397Z,202.50
2019-06-11T08:35:06.799Z,202.50
2019-06-11T08:36:06.738Z,202.50
2019-06-11T08:37:06.736Z,180.00
2019-06-11T08:38:06.735Z,202.50
2019-06-11T08:39:06.806Z,225.00
2019-06-11T08:40:15.680Z,292.50
2019-06-11T08:41:06.723Z,247.50
2019-06-11T08:42:06.800Z,270.00
2019-06-11T08:43:06.681Z,292.50
2019-06-11T08:44:06.728Z,270.00
2019-06-11T08:45:18.650Z,270.00
2019-06-11T08:46:06.799Z,225.00
2019-06-11T08:47:06.768Z,247.50
2019-06-11T08:48:06.804Z,247.50
2019-06-11T08:49:06.701Z,292.50
2019-06-11T08:50:06.734Z,270.00
2019-06-11T08:51:06.732Z,292.50
2019-06-11T08:52:06.731Z,292.50
2019-06-11T08:53:06.804Z,270.00
2019-06-11T08:54:06.814Z,270.00
2019-06-11T08:55:06.764Z,292.50
2019-06-11T08:56:06.814Z,292.50
2019-06-11T08:57:06.780Z,292.50
2019-06-11T08:58:06.809Z,292.50
2019-06-11T08:59:06.690Z,270.00
2019-06-11T09:00:29.377Z,270.00
2019-06-11T09:01:09.218Z,315.00
2019-06-11T09:02:06.803Z,292.50
2019-06-11T09:03:06.783Z,292.50
2019-06-11T09:04:06.807Z,292.50
2019-06-11T09:05:06.707Z,270.00
2019-06-11T09:06:10.331Z,292.50
2019-06-11T09:07:06.802Z,292.50
2019-06-11T09:08:06.806Z,270.00
2019-06-11T09:09:06.718Z,292.50
2019-06-11T09:10:06.733Z,292.50
2019-06-11T09:11:06.783Z,270.00
2019-06-11T09:12:06.818Z,292.50
2019-06-11T09:13:06.706Z,292.50
2019-06-11T09:14:06.703Z,292.50
2019-06-11T09:15:06.709Z,270.00
2019-06-11T09:16:06.797Z,270.00
2019-06-11T09:17:06.727Z,270.00
2019-06-11T09:18:06.730Z,270.00
2019-06-11T09:19:06.758Z,292.50
2019-06-11T09:20:06.753Z,292.50
2019-06-11T09:21:06.832Z,225.00
2019-06-11T09:22:06.758Z,292.50
2019-06-11T09:23:06.834Z,270.00
2019-06-11T09:24:06.769Z,270.00
2019-06-11T09:25:06.767Z,270.00
2019-06-11T09:26:06.836Z,292.50
2019-06-11T09:27:06.777Z,292.50
2019-06-11T09:28:06.837Z,270.00
2019-06-11T09:29:06.783Z,270.00
2019-06-11T09:30:10.799Z,292.50
2019-06-11T09:31:06.788Z,270.00
2019-06-11T09:32:06.850Z,292.50
2019-06-11T09:33:06.755Z,247.50
2019-06-11T09:34:06.853Z,292.50
2019-06-11T09:35:06.859Z,292.50
2019-06-11T09:36:06.852Z,225.00
2019-06-11T09:37:06.859Z,292.50
2019-06-11T09:38:06.785Z,225.00
2019-06-11T09:39:06.782Z,270.00
2019-06-11T09:40:06.857Z,270.00
2019-06-11T09:41:06.853Z,247.50
2019-06-11T09:42:06.799Z,247.50
2019-06-11T09:43:06.789Z,202.50
2019-06-11T09:44:06.789Z,247.50
2019-06-11T09:45:06.858Z,270.00
2019-06-11T09:46:06.858Z,270.00
2019-06-11T09:47:06.815Z,270.00
2019-06-11T09:48:07.601Z,270.00
2019-06-11T09:49:06.813Z,225.00
2019-06-11T09:50:06.740Z,247.50
2019-06-11T09:51:06.733Z,292.50
2019-06-11T09:52:06.739Z,292.50
2019-06-11T09:53:06.702Z,292.50
2019-06-11T09:54:06.793Z,270.00
2019-06-11T09:55:06.705Z,292.50
2019-06-11T09:56:06.756Z,225.00
2019-06-11T09:57:06.743Z,247.50
2019-06-11T09:58:06.711Z,270.00
2019-06-11T09:59:06.754Z,202.50
2019-06-11T10:00:06.858Z,270.00
2019-06-11T10:01:06.875Z,292.50
2019-06-11T10:02:06.826Z,270.00
2019-06-11T10:03:06.805Z,247.50
2019-06-11T10:04:06.818Z,180.00
2019-06-11T10:05:06.807Z,247.50
2019-06-11T10:06:06.884Z,270.00
2019-06-11T10:07:06.802Z,270.00
2019-06-11T10:08:06.804Z,270.00
2019-06-11T10:09:06.808Z,202.50
2019-06-11T10:10:06.885Z,247.50
2019-06-11T10:11:36.908Z,247.50
2019-06-11T10:12:06.848Z,180.00
2019-06-11T10:13:06.885Z,270.00
2019-06-11T10:14:06.882Z,270.00
2019-06-11T10:15:06.877Z,292.50
2019-06-11T10:16:06.811Z,292.50
2019-06-11T10:17:06.878Z,270.00
2019-06-11T10:18:06.947Z,225.00
2019-06-11T10:19:06.888Z,247.50
2019-06-11T10:20:06.887Z,270.00
2019-06-11T10:21:06.816Z,247.50
2019-06-11T10:22:06.813Z,135.00
2019-06-11T10:23:06.885Z,180.00
2019-06-11T10:24:06.818Z,135.00
2019-06-11T10:25:06.824Z,135.00
2019-06-11T10:26:06.845Z,225.00
2019-06-11T10:27:06.890Z,315.00
2019-06-11T10:28:21.256Z,247.50
2019-06-11T10:29:06.887Z,270.00
2019-06-11T10:30:06.826Z,247.50
2019-06-11T10:31:06.893Z,270.00
2019-06-11T10:32:06.822Z,292.50
2019-06-11T10:33:06.897Z,247.50
2019-06-11T10:34:06.914Z,202.50
2019-06-11T10:35:06.900Z,247.50
2019-06-11T10:36:06.824Z,247.50
2019-06-11T10:37:06.860Z,180.00
2019-06-11T10:38:06.903Z,180.00
2019-06-11T10:39:07.000Z,157.50
2019-06-11T10:40:06.856Z,157.50
2019-06-11T10:41:06.849Z,202.50
2019-06-11T10:42:06.877Z,202.50
2019-06-11T10:43:06.823Z,225.00
2019-06-11T10:44:06.798Z,157.50
2019-06-11T10:45:06.814Z,135.00
2019-06-11T10:46:06.798Z,67.50
2019-06-11T10:47:06.846Z,90.00
2019-06-11T10:48:06.777Z,67.50
2019-06-11T10:49:06.822Z,112.50
2019-06-11T10:50:06.913Z,112.50
2019-06-11T10:51:06.865Z,90.00
2019-06-11T10:52:06.906Z,157.50
2019-06-11T10:53:06.920Z,225.00
2019-06-11T10:54:06.838Z,270.00
2019-06-11T10:55:06.927Z,90.00
2019-06-11T10:56:06.864Z,247.50
2019-06-11T10:57:06.917Z,157.50
2019-06-11T10:58:06.841Z,67.50
2019-06-11T10:59:06.854Z,180.00
2019-06-11T11:00:13.638Z,202.50
2019-06-11T11:01:06.914Z,202.50
2019-06-11T11:02:06.914Z,180.00
2019-06-11T11:03:06.850Z,90.00
2019-06-11T11:04:06.852Z,90.00
2019-06-11T11:05:06.913Z,90.00
2019-06-11T11:06:06.981Z,90.00
2019-06-11T11:07:06.917Z,90.00
2019-06-11T11:08:06.919Z,112.50
2019-06-11T11:09:06.942Z,157.50
2019-06-11T11:10:06.865Z,247.50
2019-06-11T11:11:06.796Z,292.50
2019-06-11T11:12:20.264Z,225.00
2019-06-11T11:13:06.867Z,112.50
2019-06-11T11:14:06.855Z,90.00
2019-06-11T11:15:06.840Z,67.50
2019-06-11T11:16:06.906Z,67.50
2019-06-11T11:17:06.827Z,135.00
2019-06-11T11:18:12.037Z,202.50
2019-06-11T11:19:06.841Z,225.00
2019-06-11T11:20:06.933Z,315.00
2019-06-11T11:21:06.931Z,292.50
2019-06-11T11:22:06.941Z,292.50
2019-06-11T11:23:06.936Z,292.50
2019-06-11T11:24:06.938Z,225.00
2019-06-11T11:25:06.936Z,202.50
2019-06-11T11:26:08.575Z,202.50
2019-06-11T11:27:06.863Z,270.00
2019-06-11T11:28:19.067Z,270.00
2019-06-11T11:29:06.870Z,225.00
2019-06-11T11:30:06.928Z,247.50
2019-06-11T11:31:07.014Z,202.50
2019-06-11T11:32:06.859Z,225.00
2019-06-11T11:33:07.929Z,225.00
2019-06-11T11:34:06.857Z,180.00
2019-06-11T11:35:06.892Z,112.50
2019-06-11T11:36:06.877Z,180.00
2019-06-11T11:37:06.826Z,292.50
2019-06-11T11:38:06.945Z,247.50
2019-06-11T11:39:06.864Z,270.00
2019-06-11T11:40:06.895Z,270.00
2019-06-11T11:41:06.865Z,247.50
2019-06-11T11:42:06.817Z,270.00
2019-06-11T11:43:06.868Z,135.00
2019-06-11T11:44:06.965Z,45.00
2019-06-11T11:45:06.867Z,180.00
2019-06-11T11:46:06.833Z,247.50
2019-06-11T11:47:06.816Z,292.50
2019-06-11T11:48:06.938Z,225.00
2019-06-11T11:49:06.897Z,247.50
2019-06-11T11:50:06.840Z,157.50
2019-06-11T11:51:06.945Z,202.50
2019-06-11T11:52:06.882Z,180.00
2019-06-11T11:53:06.885Z,180.00
2019-06-11T11:54:06.884Z,247.50
2019-06-11T11:55:06.865Z,292.50
2019-06-11T11:56:06.939Z,202.50
2019-06-11T11:57:06.943Z,247.50
2019-06-11T11:58:06.851Z,270.00
2019-06-11T11:59:06.938Z,112.50
2019-06-11T12:00:15.033Z,247.50
2019-06-11T12:01:06.960Z,270.00
2019-06-11T12:02:06.882Z,292.50
2019-06-11T12:03:06.950Z,225.00
2019-06-11T12:04:07.134Z,270.00
2019-06-11T12:05:07.056Z,315.00
2019-06-11T12:06:06.884Z,247.50
2019-06-11T12:07:06.951Z,270.00
2019-06-11T12:08:06.865Z,67.50
2019-06-11T12:09:06.954Z,157.50
2019-06-11T12:10:06.964Z,292.50
2019-06-11T12:11:06.897Z,270.00
2019-06-11T12:12:06.966Z,270.00
2019-06-11T12:13:07.109Z,135.00
2019-06-11T12:14:06.900Z,112.50
2019-06-11T12:15:07.952Z,180.00
2019-06-11T12:16:09.744Z,180.00
2019-06-11T12:17:07.001Z,202.50
2019-06-11T12:18:06.972Z,247.50
2019-06-11T12:19:14.921Z,292.50
2019-06-11T12:20:06.965Z,90.00
2019-06-11T12:21:06.958Z,225.00
2019-06-11T12:22:06.963Z,202.50
2019-06-11T12:23:08.816Z,270.00
2019-06-11T12:24:06.891Z,292.50
2019-06-11T12:25:27.196Z,270.00
2019-06-11T12:26:06.973Z,247.50
2019-06-11T12:27:06.969Z,270.00
2019-06-11T12:28:06.971Z,247.50
2019-06-11T12:29:06.975Z,270.00
2019-06-11T12:30:11.319Z,292.50
2019-06-11T12:31:06.904Z,292.50
2019-06-11T12:32:08.537Z,292.50
2019-06-11T12:33:06.969Z,270.00
2019-06-11T12:34:06.912Z,270.00
2019-06-11T12:35:06.873Z,247.50
2019-06-11T12:36:06.975Z,270.00
2019-06-11T12:37:06.911Z,225.00
2019-06-11T12:38:06.981Z,292.50
2019-06-11T12:39:06.977Z,270.00
2019-06-11T12:40:06.921Z,270.00
2019-06-11T12:41:09.070Z,202.50
2019-06-11T12:42:06.990Z,270.00
2019-06-11T12:43:28.908Z,225.00